Time;durP1;ratioP1;P1;durP2;ratioP2;P2;SDS_P1;SDS_P2;PMS_P1;PMS_P2;Temp;Humidity;BMP_temperature;BMP_pressure;BME280_temperature;BME280_humidity;BME280_pressure;Samples;Min_cycle;Max_cycle;Signal;HPM_P1;HPM_P2
2020/12/23 00:00:47;;;;;;;26.33;16.95;;;11.40;99.90;;;;;;5033628;28;20539;-61
2020/12/23 00:03:13;;;;;;;22.35;16.15;;;11.40;99.90;;;;;;5028129;28;20056;-61
2020/12/23 00:05:38;;;;;;;24.48;16.38;;;11.40;99.90;;;;;;5025707;28;20510;-62
2020/12/23 00:08:04;;;;;;;36.10;18.77;;;11.40;99.90;;;;;;5015838;28;20438;-63
2020/12/23 00:10:29;;;;;;;34.85;18.55;;;11.40;99.90;;;;;;5028245;28;20124;-63
2020/12/23 00:12:55;;;;;;;27.90;17.02;;;11.40;99.90;;;;;;5015432;28;20095;-63
2020/12/23 00:15:21;;;;;;;24.77;16.73;;;11.40;99.90;;;;;;5021045;28;20026;-62
2020/12/23 00:17:46;;;;;;;44.35;18.40;;;11.40;99.90;;;;;;5021887;28;20508;-62
2020/12/23 00:20:12;;;;;;;34.13;18.55;;;11.40;99.90;;;;;;5041212;28;20062;-60
2020/12/23 00:22:38;;;;;;;33.58;17.35;;;11.40;99.90;;;;;;5019756;28;20396;-61
2020/12/23 00:25:04;;;;;;;30.85;16.75;;;11.40;99.90;;;;;;5045669;28;20506;-61
2020/12/23 00:27:30;;;;;;;29.88;16.33;;;11.40;99.90;;;;;;5010920;28;20038;-62
2020/12/23 00:29:56;;;;;;;25.88;16.17;;;11.40;99.90;;;;;;5054782;28;20028;-61
2020/12/23 00:32:29;;;;;;;23.90;15.73;;;11.40;99.90;;;;;;5020888;28;20060;-61
2020/12/23 00:34:55;;;;;;;23.42;15.82;;;11.40;99.90;;;;;;5018513;28;20108;-62
2020/12/23 00:37:21;;;;;;;28.95;16.20;;;11.40;99.90;;;;;;5034385;28;20491;-62
2020/12/23 00:39:47;;;;;;;28.13;16.30;;;11.40;99.90;;;;;;5022402;28;20108;-62
2020/12/23 00:42:12;;;;;;;20.40;15.73;;;11.40;99.90;;;;;;5026364;28;20038;-61
2020/12/23 00:44:38;;;;;;;23.30;17.30;;;11.40;99.90;;;;;;5026696;28;20033;-61
2020/12/23 00:47:04;;;;;;;23.73;15.48;;;11.40;99.90;;;;;;5031356;28;20437;-60
2020/12/23 00:49:29;;;;;;;21.98;15.27;;;11.40;99.90;;;;;;5038917;28;20020;-62
2020/12/23 00:51:55;;;;;;;20.63;14.73;;;11.40;99.90;;;;;;5022666;28;20125;-61
2020/12/23 00:54:21;;;;;;;24.02;16.15;;;11.40;99.90;;;;;;5029962;28;20405;-61
2020/12/23 00:56:46;;;;;;;21.60;16.25;;;11.40;99.90;;;;;;5027116;28;20067;-62
2020/12/23 00:59:12;;;;;;;22.38;15.88;;;11.40;99.90;;;;;;5031273;28;20071;-63
2020/12/23 01:01:37;;;;;;;19.10;14.60;;;11.40;99.90;;;;;;5032663;28;20037;-63
2020/12/23 01:04:06;;;;;;;24.23;15.68;;;11.40;99.90;;;;;;5041195;28;20027;-64
2020/12/23 01:06:32;;;;;;;22.67;16.20;;;11.40;99.90;;;;;;5038429;28;20025;-64
2020/12/23 01:08:57;;;;;;;23.95;16.38;;;11.40;99.90;;;;;;5025024;28;20033;-63
2020/12/23 01:11:23;;;;;;;25.90;16.67;;;11.40;99.90;;;;;;5036405;28;20020;-63
2020/12/23 01:13:49;;;;;;;33.05;17.45;;;11.40;99.90;;;;;;5027911;28;20054;-63
2020/12/23 01:16:22;;;;;;;21.20;16.58;;;11.30;99.90;;;;;;5036130;28;20029;-62
2020/12/23 01:18:49;;;;;;;22.40;16.48;;;11.30;99.90;;;;;;5031671;28;20423;-63
2020/12/23 01:21:15;;;;;;;21.88;15.82;;;11.30;99.90;;;;;;5036093;28;20091;-62
2020/12/23 01:23:44;;;;;;;20.20;15.07;;;11.30;99.90;;;;;;5035000;28;20021;-63
2020/12/23 01:26:10;;;;;;;23.30;15.15;;;11.40;99.90;;;;;;5032796;28;20082;-63
2020/12/23 01:28:36;;;;;;;22.30;14.88;;;11.40;99.90;;;;;;5020120;28;20191;-63
2020/12/23 01:31:05;;;;;;;20.85;14.60;;;11.30;99.90;;;;;;5030025;28;20526;-63
2020/12/23 01:33:30;;;;;;;23.00;14.60;;;11.30;99.90;;;;;;5038897;28;20029;-63
2020/12/23 01:35:56;;;;;;;23.55;13.70;;;11.30;99.90;;;;;;5023679;28;20021;-63
2020/12/23 01:38:25;;;;;;;20.65;14.13;;;11.30;99.90;;;;;;5041959;28;20028;-62
2020/12/23 01:40:59;;;;;;;26.33;15.25;;;11.30;99.90;;;;;;5017448;28;20013;-63
2020/12/23 01:43:24;;;;;;;;;;;11.30;99.90;;;;;;5045016;28;20124;-62
2020/12/23 01:45:50;;;;;;;17.92;11.57;;;11.30;99.90;;;;;;5034245;28;20274;-62
2020/12/23 01:48:20;;;;;;;22.92;12.30;;;11.30;99.90;;;;;;5011101;28;20029;-63
2020/12/23 01:50:46;;;;;;;16.98;10.57;;;11.30;99.90;;;;;;5031119;28;20177;-62
2020/12/23 01:53:12;;;;;;;16.77;11.43;;;11.30;99.90;;;;;;5033141;28;20116;-63
2020/12/23 01:55:38;;;;;;;12.90;9.70;;;11.30;99.90;;;;;;5035665;28;20033;-62
2020/12/23 01:58:04;;;;;;;16.08;10.80;;;11.30;99.90;;;;;;5036635;28;20047;-62
2020/12/23 02:00:29;;;;;;;13.35;9.02;;;11.30;99.90;;;;;;5030538;28;20116;-63
2020/12/23 02:03:00;;;;;;;12.68;9.00;;;11.30;99.90;;;;;;5032067;28;20037;-63
2020/12/23 02:05:26;;;;;;;14.32;8.63;;;11.30;99.90;;;;;;5036183;28;20026;-63
2020/12/23 02:07:52;;;;;;;13.88;8.73;;;11.30;99.90;;;;;;5031532;28;20026;-63
2020/12/23 02:10:17;;;;;;;14.02;7.93;;;11.30;99.90;;;;;;5033375;28;20030;-64
2020/12/23 02:12:43;;;;;;;18.77;7.70;;;11.20;99.90;;;;;;5032951;28;20045;-63
2020/12/23 02:15:11;;;;;;;12.35;7.05;;;11.20;99.90;;;;;;5036687;28;20021;-64
2020/12/23 02:17:37;;;;;;;12.40;6.82;;;11.20;99.90;;;;;;5036358;28;21179;-64
2020/12/23 02:20:06;;;;;;;8.32;5.43;;;11.20;99.90;;;;;;5022738;28;20024;-63
2020/12/23 02:22:32;;;;;;;7.20;6.05;;;11.20;99.90;;;;;;5019589;28;20483;-62
2020/12/23 02:24:57;;;;;;;8.40;5.97;;;11.20;99.90;;;;;;5011349;28;20044;-61
2020/12/23 02:27:24;;;;;;;9.68;6.30;;;11.20;99.90;;;;;;4994902;28;20140;-63
2020/12/23 02:29:52;;;;;;;9.50;6.07;;;11.20;99.90;;;;;;5032919;28;20733;-61
2020/12/23 02:32:18;;;;;;;8.82;5.75;;;11.20;99.90;;;;;;5023893;28;20029;-62
2020/12/23 02:34:45;;;;;;;7.53;5.80;;;11.20;99.90;;;;;;5022945;28;20109;-61
2020/12/23 02:37:11;;;;;;;8.20;5.80;;;11.20;99.90;;;;;;5022088;28;20025;-61
2020/12/23 02:39:38;;;;;;;7.93;5.70;;;11.20;99.90;;;;;;5036830;28;20074;-62
2020/12/23 02:42:05;;;;;;;8.63;6.00;;;11.20;99.90;;;;;;5014580;28;20111;-61
2020/12/23 02:44:31;;;;;;;8.18;5.32;;;11.20;99.90;;;;;;5033963;28;20399;-59
2020/12/23 02:47:02;;;;;;;10.75;5.68;;;11.10;99.90;;;;;;5024196;28;20025;-62
2020/12/23 02:49:28;;;;;;;8.70;5.78;;;11.10;99.90;;;;;;5028854;28;20039;-63
2020/12/23 02:51:54;;;;;;;11.07;7.32;;;11.10;99.90;;;;;;5022133;28;20113;-62
2020/12/23 02:54:20;;;;;;;10.25;6.55;;;11.10;99.90;;;;;;5023867;28;20052;-61
2020/12/23 02:56:46;;;;;;;9.13;7.43;;;11.10;99.90;;;;;;5010079;28;20018;-61
2020/12/23 02:59:12;;;;;;;14.02;7.78;;;11.00;99.90;;;;;;5002868;28;20108;-62
2020/12/23 03:01:38;;;;;;;16.17;10.23;;;11.10;99.90;;;;;;5013372;28;20058;-62
2020/12/23 03:04:04;;;;;;;15.55;10.13;;;11.00;99.90;;;;;;5003635;28;20033;-62
2020/12/23 03:06:30;;;;;;;14.05;9.60;;;11.00;99.90;;;;;;5010335;28;20018;-60
2020/12/23 03:08:56;;;;;;;13.43;9.52;;;11.00;99.90;;;;;;5003849;28;20105;-61
2020/12/23 03:11:22;;;;;;;13.30;9.38;;;11.00;99.90;;;;;;5015446;28;20029;-60
2020/12/23 03:13:47;;;;;;;10.45;7.88;;;11.00;99.90;;;;;;5011954;28;20034;-61
2020/12/23 03:16:13;;;;;;;14.98;9.02;;;11.00;99.90;;;;;;5013004;28;20506;-60
2020/12/23 03:18:39;;;;;;;13.00;8.70;;;11.00;99.90;;;;;;5013222;28;20425;-62
2020/12/23 03:21:08;;;;;;;12.52;8.68;;;11.00;99.90;;;;;;5012371;28;20041;-60
2020/12/23 03:23:34;;;;;;;14.00;7.93;;;11.00;99.90;;;;;;5030592;28;20513;-61
2020/12/23 03:26:00;;;;;;;12.00;7.88;;;11.00;99.90;;;;;;5036575;28;20060;-62
2020/12/23 03:28:25;;;;;;;14.98;9.30;;;11.00;99.90;;;;;;5000361;28;20670;-61
2020/12/23 03:30:51;;;;;;;15.75;9.52;;;10.90;99.90;;;;;;5000308;28;20029;-62
2020/12/23 03:33:16;;;;;;;13.38;8.77;;;10.90;99.90;;;;;;5026969;28;20071;-62
2020/12/23 03:35:42;;;;;;;11.40;8.32;;;10.90;99.90;;;;;;5026846;28;20385;-60
2020/12/23 03:38:08;;;;;;;15.90;9.07;;;10.90;99.90;;;;;;5032117;28;20028;-62
2020/12/23 03:40:33;;;;;;;14.77;8.45;;;10.90;99.90;;;;;;5034584;28;20039;-61
2020/12/23 03:42:59;;;;;;;12.65;8.80;;;10.90;99.90;;;;;;5037050;28;20028;-62
2020/12/23 03:45:24;;;;;;;14.27;8.43;;;10.90;99.90;;;;;;5023749;28;20033;-60
2020/12/23 03:47:50;;;;;;;12.60;8.50;;;10.90;99.90;;;;;;5036019;28;20025;-60
2020/12/23 03:50:16;;;;;;;11.80;7.40;;;10.90;99.90;;;;;;5034099;28;20409;-60
2020/12/23 03:52:41;;;;;;;11.93;7.53;;;10.90;99.90;;;;;;5029441;28;20069;-60
2020/12/23 03:55:08;;;;;;;8.43;5.30;;;11.00;99.90;;;;;;5038860;28;20025;-61
2020/12/23 03:57:34;;;;;;;9.02;3.58;;;10.90;99.90;;;;;;5033758;28;20136;-62
2020/12/23 04:00:03;;;;;;;6.75;4.22;;;11.00;99.90;;;;;;5037566;28;20821;-62
2020/12/23 04:02:28;;;;;;;5.63;3.30;;;11.00;99.90;;;;;;5034391;28;20409;-63
2020/12/23 04:04:54;;;;;;;5.38;2.88;;;11.00;99.90;;;;;;5027710;28;20042;-62
2020/12/23 04:07:19;;;;;;;5.50;3.17;;;11.00;99.90;;;;;;5032112;28;20029;-62
2020/12/23 04:09:45;;;;;;;6.93;3.22;;;11.00;99.90;;;;;;5027981;28;20038;-61
2020/12/23 04:12:10;;;;;;;4.93;3.05;;;11.00;99.90;;;;;;5036138;28;20028;-62
2020/12/23 04:14:36;;;;;;;4.35;2.90;;;11.00;99.90;;;;;;5027475;28;20064;-64
2020/12/23 04:17:01;;;;;;;4.65;2.85;;;11.00;99.90;;;;;;5036760;28;20052;-60
2020/12/23 04:19:27;;;;;;;5.72;3.58;;;11.00;99.90;;;;;;5025231;28;20053;-62
2020/12/23 04:21:52;;;;;;;5.93;2.90;;;11.10;99.90;;;;;;5037237;28;20689;-62
2020/12/23 04:24:18;;;;;;;5.47;3.15;;;11.10;99.90;;;;;;4987707;28;20670;-63
2020/12/23 04:26:43;;;;;;;6.55;3.00;;;11.10;99.90;;;;;;5027081;28;20494;-62
2020/12/23 04:29:09;;;;;;;6.47;2.90;;;11.10;99.90;;;;;;5025335;28;20399;-62
2020/12/23 04:31:34;;;;;;;5.15;2.85;;;11.10;99.90;;;;;;5029655;28;20667;-62
2020/12/23 04:34:00;;;;;;;3.70;2.65;;;11.10;99.90;;;;;;5040173;28;20541;-63
2020/12/23 04:36:25;;;;;;;5.28;2.83;;;11.10;99.90;;;;;;5029782;28;20034;-62
2020/12/23 04:38:51;;;;;;;12.90;3.25;;;11.10;99.90;;;;;;5035627;28;20037;-63
2020/12/23 04:41:17;;;;;;;3.92;2.75;;;11.00;99.90;;;;;;5034795;28;20036;-62
2020/12/23 04:43:43;;;;;;;10.45;2.78;;;11.00;99.90;;;;;;5026520;28;20033;-63
2020/12/23 04:46:10;;;;;;;6.22;2.80;;;11.10;99.90;;;;;;5030374;28;20128;-63
2020/12/23 04:48:38;;;;;;;6.90;2.65;;;11.10;99.90;;;;;;5027506;28;20486;-63
2020/12/23 04:51:04;;;;;;;3.58;2.40;;;11.10;99.90;;;;;;5034400;28;20032;-61
2020/12/23 04:53:31;;;;;;;3.05;1.88;;;11.10;99.90;;;;;;5031877;28;20032;-63
2020/12/23 04:55:56;;;;;;;3.60;2.20;;;11.10;99.90;;;;;;5030970;28;20024;-62
2020/12/23 04:58:23;;;;;;;8.93;3.08;;;11.10;99.90;;;;;;5026060;28;20022;-63
2020/12/23 05:00:50;;;;;;;4.57;2.67;;;11.20;99.90;;;;;;5022444;28;20032;-62
2020/12/23 05:03:15;;;;;;;4.72;2.33;;;11.20;99.90;;;;;;5043710;28;20049;-61
2020/12/23 05:05:41;;;;;;;4.22;2.70;;;11.20;99.90;;;;;;5028395;28;20026;-61
2020/12/23 05:08:07;;;;;;;8.43;2.92;;;11.20;99.90;;;;;;5031943;28;20163;-62
2020/12/23 05:10:32;;;;;;;5.47;2.60;;;11.20;99.90;;;;;;5027422;28;20028;-60
2020/12/23 05:12:58;;;;;;;5.30;2.72;;;11.20;99.90;;;;;;5039792;28;20029;-62
2020/12/23 05:15:24;;;;;;;6.75;2.75;;;11.20;99.90;;;;;;5032528;28;20037;-61
2020/12/23 05:17:50;;;;;;;5.10;3.45;;;11.20;99.90;;;;;;5038832;28;20018;-63
2020/12/23 05:20:16;;;;;;;6.45;3.20;;;11.10;99.90;;;;;;5034733;28;20052;-60
2020/12/23 05:22:47;;;;;;;4.70;3.03;;;11.20;99.90;;;;;;5038508;28;20057;-62
2020/12/23 05:25:13;;;;;;;5.13;3.08;;;11.20;99.90;;;;;;5035740;28;20029;-62
2020/12/23 05:27:41;;;;;;;3.42;2.88;;;11.20;99.90;;;;;;5017316;28;20037;-63
2020/12/23 05:30:06;;;;;;;5.35;3.30;;;11.20;99.90;;;;;;5033402;28;20021;-63
2020/12/23 05:32:38;;;;;;;4.60;3.63;;;11.20;99.90;;;;;;5036651;28;20121;-63
2020/12/23 05:35:04;;;;;;;5.65;3.03;;;11.20;99.90;;;;;;5031733;28;20473;-61
2020/12/23 05:37:31;;;;;;;6.03;3.03;;;11.10;99.90;;;;;;5032990;28;20017;-64
2020/12/23 05:39:56;;;;;;;4.90;3.47;;;11.10;99.90;;;;;;5040819;28;20029;-62
2020/12/23 05:42:23;;;;;;;4.68;3.35;;;11.10;99.90;;;;;;5038006;28;20401;-63
2020/12/23 05:44:55;;;;;;;7.60;2.90;;;11.10;99.90;;;;;;5028600;28;20021;-63
2020/12/23 05:47:23;;;;;;;4.15;2.58;;;11.10;99.90;;;;;;5036575;28;20505;-62
2020/12/23 05:49:50;;;;;;;3.47;2.60;;;11.10;99.90;;;;;;5033556;28;20603;-64
2020/12/23 05:52:21;;;;;;;5.45;2.40;;;11.00;99.90;;;;;;5026705;28;20048;-63
2020/12/23 05:54:53;;;;;;;5.28;2.47;;;11.00;99.90;;;;;;5024051;28;20041;-63
2020/12/23 05:57:20;;;;;;;3.45;2.30;;;11.10;99.90;;;;;;5028244;28;20013;-64
2020/12/23 05:59:46;;;;;;;3.13;1.92;;;11.00;99.90;;;;;;5025304;28;20036;-63
2020/12/23 06:02:12;;;;;;;3.60;2.40;;;11.00;99.90;;;;;;5034943;28;20033;-62
2020/12/23 06:04:42;;;;;;;2.42;1.67;;;11.00;99.90;;;;;;5032214;28;20549;-64
2020/12/23 06:07:08;;;;;;;3.22;2.17;;;11.00;99.90;;;;;;5036319;28;20033;-63
2020/12/23 06:09:47;;;;;;;2.65;1.48;;;11.00;99.90;;;;;;5029755;28;20546;-62
2020/12/23 06:12:21;;;;;;;2.53;1.50;;;11.00;99.90;;;;;;5033596;28;20128;-64
2020/12/23 06:14:57;;;;;;;3.08;1.40;;;11.00;99.90;;;;;;5021735;28;20056;-62
2020/12/23 06:17:24;;;;;;;3.67;1.40;;;11.00;99.90;;;;;;5036695;28;20036;-63
2020/12/23 06:19:53;;;;;;;5.13;1.70;;;11.00;99.90;;;;;;5024137;28;20033;-63
2020/12/23 06:22:22;;;;;;;3.25;1.73;;;11.00;99.90;;;;;;5037233;28;20110;-64
2020/12/23 06:24:47;;;;;;;3.30;1.27;;;11.00;99.90;;;;;;5024848;28;20427;-64
2020/12/23 06:27:13;;;;;;;1.90;1.50;;;11.00;99.90;;;;;;5034304;28;20150;-63
2020/12/23 06:29:43;;;;;;;1.85;1.30;;;11.00;99.90;;;;;;5010061;28;20049;-64
2020/12/23 06:32:17;;;;;;;3.03;1.30;;;11.00;99.90;;;;;;5021634;28;20116;-64
2020/12/23 06:34:43;;;;;;;1.77;1.17;;;11.00;99.90;;;;;;5001908;28;20041;-64
2020/12/23 06:37:18;;;;;;;2.80;1.40;;;10.90;99.90;;;;;;5030980;28;20017;-63
2020/12/23 06:39:45;;;;;;;3.63;1.48;;;10.90;99.90;;;;;;5036212;28;20029;-61
2020/12/23 06:42:10;;;;;;;4.28;1.27;;;10.90;99.90;;;;;;5032252;28;20036;-63
2020/12/23 06:44:42;;;;;;;4.38;1.33;;;10.90;99.90;;;;;;5033894;28;20044;-62
2020/12/23 06:47:17;;;;;;;2.15;1.40;;;10.90;99.90;;;;;;5025809;28;20575;-63
2020/12/23 06:49:47;;;;;;;3.78;1.20;;;10.90;99.90;;;;;;5033371;28;20107;-63
2020/12/23 06:52:22;;;;;;;3.60;1.40;;;10.90;99.90;;;;;;5032236;28;20033;-63
2020/12/23 06:54:50;;;;;;;2.88;1.30;;;10.90;99.90;;;;;;5039333;28;20040;-62
2020/12/23 06:57:37;;;;;;;1.70;1.20;;;10.90;99.90;;;;;;5033489;28;20014;-62
2020/12/23 07:00:13;;;;;;;3.42;1.90;;;10.90;99.90;;;;;;5036907;28;20021;-62
2020/12/23 07:02:38;;;;;;;2.20;1.35;;;10.90;99.90;;;;;;5031610;28;20021;-62
2020/12/23 07:05:04;;;;;;;6.90;1.70;;;10.90;99.90;;;;;;5043321;28;20032;-62
2020/12/23 07:07:33;;;;;;;7.97;1.42;;;10.90;99.90;;;;;;5030183;28;20030;-62
2020/12/23 07:10:26;;;;;;;3.03;1.58;;;10.90;99.90;;;;;;5028858;28;20034;-63
2020/12/23 07:12:55;;;;;;;4.20;1.85;;;10.90;99.90;;;;;;5033296;28;20044;-63
2020/12/23 07:15:30;;;;;;;3.65;1.90;;;10.90;99.90;;;;;;5035156;28;20502;-62
2020/12/23 07:18:02;;;;;;;4.07;1.33;;;11.00;99.90;;;;;;5035271;28;20025;-62
2020/12/23 07:20:30;;;;;;;2.10;1.67;;;11.00;99.90;;;;;;5035945;28;20057;-63
2020/12/23 07:23:03;;;;;;;4.15;1.35;;;11.00;99.90;;;;;;5032895;28;20087;-62
2020/12/23 07:25:28;;;;;;;4.65;1.52;;;11.00;99.90;;;;;;5030836;28;20033;-62
2020/12/23 07:27:58;;;;;;;2.30;1.35;;;11.00;99.90;;;;;;5014088;28;20103;-62
2020/12/23 07:30:27;;;;;;;4.63;1.60;;;11.00;99.90;;;;;;5034993;28;20037;-64
2020/12/23 07:33:09;;;;;;;7.28;2.28;;;11.00;99.90;;;;;;5034027;28;20060;-62
2020/12/23 07:35:36;;;;;;;8.95;3.63;;;10.90;99.90;;;;;;5021784;28;20499;-63
2020/12/23 07:38:04;;;;;;;5.53;1.95;;;10.90;99.90;;;;;;5034135;28;20055;-63
2020/12/23 07:40:31;;;;;;;2.88;2.13;;;10.90;99.90;;;;;;5032569;28;20734;-63
2020/12/23 07:42:57;;;;;;;6.63;2.08;;;10.90;99.90;;;;;;5029314;28;20529;-62
2020/12/23 07:45:27;;;;;;;4.13;1.60;;;10.90;99.90;;;;;;5022523;28;20021;-63
2020/12/23 07:47:58;;;;;;;2.42;1.50;;;10.90;99.90;;;;;;5038910;28;20525;-63
2020/12/23 07:50:26;;;;;;;2.35;1.60;;;10.90;99.90;;;;;;5034158;28;20041;-63
2020/12/23 07:52:52;;;;;;;1.77;1.35;;;10.90;99.90;;;;;;5029742;28;20506;-63
2020/12/23 07:55:20;;;;;;;4.25;1.50;;;10.90;99.90;;;;;;5037816;28;20040;-63
2020/12/23 07:57:53;;;;;;;1.50;1.27;;;11.00;99.90;;;;;;5033088;28;20033;-63
2020/12/23 08:00:21;;;;;;;4.80;1.40;;;11.00;99.90;;;;;;5021672;28;20056;-63
2020/12/23 08:02:47;;;;;;;1.83;1.55;;;11.00;99.90;;;;;;5032969;28;20045;-63
2020/12/23 08:05:14;;;;;;;7.20;1.48;;;11.00;99.90;;;;;;5033965;28;20048;-63
2020/12/23 08:07:44;;;;;;;1.63;1.52;;;11.00;99.90;;;;;;5028738;28;20475;-64
2020/12/23 08:10:17;;;;;;;7.05;3.05;;;11.00;99.90;;;;;;5024208;28;20052;-62
2020/12/23 08:12:56;;;;;;;3.63;2.22;;;11.00;99.90;;;;;;5034280;28;20064;-63
2020/12/23 08:15:22;;;;;;;2.92;2.13;;;11.00;99.90;;;;;;5031651;28;20026;-62
2020/12/23 08:17:57;;;;;;;1.88;1.60;;;11.00;99.90;;;;;;5032561;28;20021;-64
2020/12/23 08:20:23;;;;;;;7.53;1.88;;;11.00;99.90;;;;;;5032745;28;20056;-63
2020/12/23 08:22:48;;;;;;;3.28;1.73;;;11.00;99.90;;;;;;5034552;28;20057;-62
2020/12/23 08:25:16;;;;;;;8.60;2.30;;;11.10;99.90;;;;;;5029611;28;20041;-62
2020/12/23 08:27:47;;;;;;;3.53;1.52;;;11.10;99.90;;;;;;5032552;28;20371;-62
2020/12/23 08:30:17;;;;;;;3.90;1.83;;;11.10;99.90;;;;;;5026065;28;20359;-62
2020/12/23 08:33:15;;;;;;;2.00;1.40;;;11.10;99.90;;;;;;5024429;28;20076;-63
2020/12/23 08:35:43;;;;;;;2.80;1.85;;;11.10;99.90;;;;;;5019780;28;20056;-64
2020/12/23 08:38:24;;;;;;;3.85;2.17;;;11.10;99.90;;;;;;5026433;28;20029;-63
2020/12/23 08:40:52;;;;;;;4.97;2.00;;;11.10;99.90;;;;;;5023412;28;20581;-63
2020/12/23 08:43:22;;;;;;;4.57;2.03;;;11.10;99.90;;;;;;5028270;28;20018;-62
2020/12/23 08:45:48;;;;;;;2.80;2.00;;;11.10;99.90;;;;;;5035470;28;20036;-62
2020/12/23 08:48:25;;;;;;;3.60;2.45;;;11.10;99.90;;;;;;5017073;28;20030;-61
2020/12/23 08:51:01;;;;;;;2.15;1.95;;;11.10;99.90;;;;;;5028993;28;20041;-62
2020/12/23 08:53:32;;;;;;;6.60;2.67;;;11.10;99.90;;;;;;5007540;28;20033;-61
2020/12/23 08:55:59;;;;;;;4.70;2.90;;;11.10;99.90;;;;;;5027607;28;20052;-62
2020/12/23 08:58:25;;;;;;;4.20;2.95;;;11.20;99.90;;;;;;5016699;28;20121;-62
2020/12/23 09:01:00;;;;;;;2.13;1.92;;;11.20;99.90;;;;;;5031762;28;20493;-62
2020/12/23 09:03:27;;;;;;;3.60;2.42;;;11.20;99.90;;;;;;5022692;28;21117;-62
2020/12/23 09:05:56;;;;;;;3.35;2.67;;;11.30;99.90;;;;;;5025185;28;20049;-62
2020/12/23 09:08:26;;;;;;;3.53;2.30;;;11.30;99.90;;;;;;5024707;28;20083;-62
2020/12/23 09:10:57;;;;;;;6.72;2.40;;;11.40;99.90;;;;;;5024025;28;20083;-61
2020/12/23 09:13:32;;;;;;;3.40;2.60;;;11.50;99.90;;;;;;5032673;28;20037;-61
2020/12/23 09:15:59;;;;;;;3.35;2.80;;;11.50;99.90;;;;;;5013556;28;20053;-62
2020/12/23 09:18:25;;;;;;;5.40;2.42;;;11.50;99.90;;;;;;5035679;28;20040;-61
2020/12/23 09:21:03;;;;;;;3.72;2.92;;;11.60;99.90;;;;;;5018974;28;20026;-61
2020/12/23 09:23:29;;;;;;;3.60;2.42;;;11.60;99.90;;;;;;5031470;28;20032;-62
2020/12/23 09:25:55;;;;;;;3.35;2.67;;;11.70;99.90;;;;;;5020726;28;20029;-61
2020/12/23 09:28:25;;;;;;;4.90;2.40;;;11.70;99.90;;;;;;5012005;28;20025;-61
2020/12/23 09:30:52;;;;;;;3.33;2.60;;;11.70;99.90;;;;;;5019496;28;20022;-61
2020/12/23 09:33:21;;;;;;;3.13;1.98;;;11.70;99.90;;;;;;5022639;28;20502;-62
2020/12/23 09:36:02;;;;;;;3.05;2.30;;;11.80;99.90;;;;;;5008544;28;20061;-61
2020/12/23 09:38:30;;;;;;;3.63;2.20;;;11.80;99.90;;;;;;5027102;28;20483;-60
2020/12/23 09:40:59;;;;;;;2.83;1.65;;;11.80;99.90;;;;;;5024036;28;20018;-61
2020/12/23 09:43:26;;;;;;;2.72;1.95;;;11.90;99.90;;;;;;5013867;28;20041;-62
2020/12/23 09:45:54;;;;;;;2.05;1.50;;;12.00;99.90;;;;;;5027453;28;20022;-61
2020/12/23 09:48:21;;;;;;;2.42;1.73;;;12.10;99.90;;;;;;5024397;28;20387;-63
2020/12/23 09:50:48;;;;;;;1.95;1.67;;;12.20;99.90;;;;;;5031350;28;20025;-63
2020/12/23 09:53:14;;;;;;;1.77;1.63;;;12.20;99.90;;;;;;5025576;28;20431;-63
2020/12/23 09:55:43;;;;;;;2.25;1.85;;;12.20;99.90;;;;;;5033510;28;20080;-63
2020/12/23 09:58:10;;;;;;;3.03;2.05;;;12.30;99.90;;;;;;5026047;28;20052;-63
2020/12/23 10:00:36;;;;;;;7.43;3.80;;;12.30;99.90;;;;;;5035655;28;20477;-61
2020/12/23 10:03:01;;;;;;;19.55;8.68;;;12.30;99.90;;;;;;5035433;28;20029;-62
2020/12/23 10:05:29;;;;;;;5.50;3.55;;;12.30;99.90;;;;;;5038532;28;20144;-61
2020/12/23 10:07:54;;;;;;;3.50;1.85;;;12.40;99.90;;;;;;5032002;28;20033;-61
2020/12/23 10:10:20;;;;;;;4.22;2.08;;;12.50;99.90;;;;;;5021939;28;20481;-61
2020/12/23 10:12:46;;;;;;;1.58;1.48;;;12.50;99.90;;;;;;5037282;28;20022;-62
2020/12/23 10:15:11;;;;;;;3.35;1.40;;;12.60;99.90;;;;;;5033801;28;20025;-61
2020/12/23 10:17:37;;;;;;;1.35;1.17;;;12.60;99.90;;;;;;5034837;28;20080;-60
2020/12/23 10:20:04;;;;;;;2.08;1.40;;;12.60;99.90;;;;;;5040926;28;20099;-61
2020/12/23 10:22:30;;;;;;;3.53;1.30;;;12.70;99.90;;;;;;5036469;28;20112;-60
2020/12/23 10:24:56;;;;;;;2.50;1.27;;;12.70;99.90;;;;;;5042115;28;20108;-60
2020/12/23 10:27:21;;;;;;;1.42;1.23;;;12.70;99.90;;;;;;5033184;28;20033;-59
2020/12/23 10:29:47;;;;;;;2.88;1.38;;;12.60;99.90;;;;;;5008739;28;20573;-61
2020/12/23 10:32:13;;;;;;;1.30;1.20;;;12.60;99.90;;;;;;5033570;28;20025;-61
2020/12/23 10:34:39;;;;;;;3.65;1.75;;;12.60;99.90;;;;;;5019270;28;20066;-60
2020/12/23 10:37:05;;;;;;;4.05;1.70;;;12.60;99.90;;;;;;5027435;28;20056;-63
2020/12/23 10:39:31;;;;;;;5.68;1.83;;;12.60;99.90;;;;;;5030423;28;20080;-61
2020/12/23 10:41:56;;;;;;;4.93;1.48;;;12.50;99.90;;;;;;5035104;28;20025;-61
2020/12/23 10:44:23;;;;;;;1.83;1.67;;;12.60;99.90;;;;;;5034550;28;20364;-61
2020/12/23 10:46:58;;;;;;;3.03;2.38;;;12.50;99.90;;;;;;5032914;28;20052;-61
2020/12/23 10:49:25;;;;;;;3.13;1.70;;;12.50;99.90;;;;;;5019284;28;20028;-62
2020/12/23 10:51:52;;;;;;;2.00;1.50;;;12.50;99.90;;;;;;5024680;28;20026;-62
2020/12/23 10:54:18;;;;;;;6.97;2.35;;;12.50;99.90;;;;;;5019199;28;20108;-62
2020/12/23 10:56:44;;;;;;;9.38;4.70;;;12.50;99.90;;;;;;5024213;28;20032;-62
2020/12/23 10:59:10;;;;;;;10.88;6.28;;;12.50;99.90;;;;;;5035621;28;20013;-62
2020/12/23 11:01:36;;;;;;;11.00;8.23;;;12.40;99.90;;;;;;5024695;28;20024;-62
2020/12/23 11:04:02;;;;;;;73.78;40.47;;;12.40;99.90;;;;;;5026319;28;20421;-61
2020/12/23 11:06:27;;;;;;;32.42;18.85;;;12.40;99.90;;;;;;5033968;28;20025;-62
2020/12/23 11:08:53;;;;;;;42.47;24.05;;;12.40;99.90;;;;;;5031849;28;20060;-62
2020/12/23 11:11:20;;;;;;;34.17;17.90;;;12.30;99.90;;;;;;5033098;28;20041;-60
2020/12/23 11:13:45;;;;;;;29.83;20.27;;;12.20;99.90;;;;;;5032077;28;20099;-62
2020/12/23 11:16:15;;;;;;;8.65;5.60;;;12.20;99.90;;;;;;5022508;28;20025;-61
2020/12/23 11:18:41;;;;;;;7.00;5.05;;;12.20;99.90;;;;;;5039374;28;20090;-61
2020/12/23 11:21:08;;;;;;;7.07;4.55;;;12.20;99.90;;;;;;5030879;28;20037;-62
2020/12/23 11:23:33;;;;;;;5.70;2.55;;;12.20;99.90;;;;;;5038553;28;20028;-61
2020/12/23 11:25:59;;;;;;;4.20;2.72;;;12.20;99.90;;;;;;5029812;28;20041;-62
2020/12/23 11:28:24;;;;;;;8.52;2.92;;;12.20;99.90;;;;;;5032141;28;20456;-61
2020/12/23 11:30:50;;;;;;;11.52;7.25;;;12.10;99.90;;;;;;5015654;28;20563;-61
2020/12/23 11:33:15;;;;;;;12.38;5.13;;;12.10;99.90;;;;;;5038363;28;20029;-62
2020/12/23 11:35:42;;;;;;;15.73;4.70;;;12.10;99.90;;;;;;5013550;28;20048;-61
2020/12/23 11:38:08;;;;;;;6.72;2.38;;;12.00;99.90;;;;;;5036022;28;20104;-61
2020/12/23 11:40:33;;;;;;;8.93;4.55;;;12.00;99.90;;;;;;5033421;28;20022;-61
2020/12/23 11:42:59;;;;;;;3.03;2.40;;;11.90;99.90;;;;;;5036722;28;20029;-62
2020/12/23 11:45:25;;;;;;;5.45;3.47;;;11.90;99.90;;;;;;5025011;28;20033;-61
2020/12/23 11:47:51;;;;;;;18.13;4.68;;;11.80;99.90;;;;;;5020096;28;20026;-61
2020/12/23 11:50:16;;;;;;;12.88;4.68;;;11.80;99.90;;;;;;5018213;28;20601;-60
2020/12/23 11:52:42;;;;;;;13.45;4.70;;;11.80;99.90;;;;;;5015334;28;20399;-61
2020/12/23 11:55:08;;;;;;;7.28;3.90;;;11.80;99.90;;;;;;5020418;28;20106;-61
2020/12/23 11:57:38;;;;;;;18.08;11.30;;;11.70;99.90;;;;;;5025371;28;20022;-61
2020/12/23 12:00:05;;;;;;;6.50;2.88;;;11.70;99.90;;;;;;5020882;28;20025;-61
2020/12/23 12:02:30;;;;;;;4.05;2.20;;;11.70;99.90;;;;;;5025069;28;20021;-62
2020/12/23 12:04:56;;;;;;;9.43;5.40;;;11.70;99.90;;;;;;5033763;28;20476;-61
2020/12/23 12:07:21;;;;;;;35.38;22.40;;;11.70;99.90;;;;;;5033783;28;20025;-61
2020/12/23 12:09:47;;;;;;;7.28;4.53;;;11.70;99.90;;;;;;5029161;28;20559;-61
2020/12/23 12:12:12;;;;;;;4.60;3.25;;;11.80;99.90;;;;;;5036356;28;20104;-61
2020/12/23 12:14:38;;;;;;;10.48;4.47;;;11.80;99.90;;;;;;5029790;28;20120;-61
2020/12/23 12:17:03;;;;;;;9.05;6.50;;;11.80;99.90;;;;;;5029639;28;20104;-62
2020/12/23 12:19:29;;;;;;;14.75;11.65;;;11.80;99.90;;;;;;5020711;28;20030;-62
2020/12/23 12:21:55;;;;;;;14.02;9.38;;;11.80;99.90;;;;;;5031459;28;20033;-62
2020/12/23 12:24:20;;;;;;;17.40;10.90;;;11.80;99.90;;;;;;5029097;28;20103;-61
2020/12/23 12:26:46;;;;;;;14.88;9.25;;;11.80;99.90;;;;;;5017948;28;20092;-62
2020/12/23 12:29:12;;;;;;;7.20;5.22;;;11.80;99.90;;;;;;4997932;28;20040;-62
2020/12/23 12:31:38;;;;;;;6.60;5.70;;;11.80;99.90;;;;;;5025499;28;20498;-62
2020/12/23 12:34:03;;;;;;;15.25;8.68;;;11.80;99.90;;;;;;5029615;28;20092;-62
2020/12/23 12:36:29;;;;;;;12.02;7.28;;;11.80;99.90;;;;;;5025113;28;20105;-61
2020/12/23 12:38:55;;;;;;;10.27;5.18;;;11.80;99.90;;;;;;5029470;28;20029;-61
2020/12/23 12:41:25;;;;;;;10.07;5.47;;;11.80;99.90;;;;;;5024214;28;20029;-60